Dirección General De Aeronáutica Civil

Dirección Meteorológica de Chile - Servicios Climáticos

Informe General de Control de Calidad de la Estación

Listado de niveles de control de calidad para algunos parámetros
Estación Chincolco Liceo agrícola (320049)
Fecha de Revisión de los datos :

Elementos

Registros Niveles de Control Total
Nivel 0 Nivel 1 Nivel 2 Nivel 3 Errores Porcentaje
01 Temperatura del Aire Seco 50.851 0 . 0 . 0 . 0 . 0 0.00 %
02 Temperatura de Rocío 38.260 0 . 0 . 0 . 0 . 0 0.00 %
03 Humedad Relativa del Aire 38.243 0 . 0 . 0 . 0 . 0 0.00 %
04 Temperatura Máxima PM 6.198 0 . 0 . 47 0.76 % 0 . 47 0.76 %
05 Temperatura Mínima AM 6.173 0 . 0 . 13 0.21 % 0 . 13 0.21 %
06 Viento a 10 m. de Altura 38.260 0 . 0 . 0 . 0 . 0 0.00 %
07 Agua Caida, Acumulada 6 Horas 6.403 0 . 0 . 0 . 0 . 0 0.00 %
08 Presión Atm. a Nivel de Estación (QFE) 31.795 0 . 0 . 0 . 0 . 0 0.00 %
09 Presión Atm. a Nivel Medio del Mar (QFF) 31.795 0 . 0 . 0 . 0 . 0 0.00 %
10 Presión Atm. Estándar OACI (QNH) 31.795 0 . 0 . 0 . 0 . 0 0.00 %

Totales

279.773 . 0.0000 % . 0.0000 % . 0.0214 % . 0.0000 % 60 0.0214 %

Detalle de Errores Recientes

Fecha del Dato Descripción Información Error Fecha Ingreso
2000-05-14 00:00:00 Temperatura 13.0 del 13-05-2000 18:00, Mayor que la Máxima 5.4 14-05-2000 00:00 13.0 -- 5.4 2023-12-28 23:32:00
2000-07-16 00:00:00 Temperatura 22.8 del 15-07-2000 18:00, Mayor que la Máxima 22.2 16-07-2000 00:00 22.8 -- 22.2 2023-12-28 23:33:00
2001-01-07 00:00:00 Temperatura 27.6 del 06-01-2001 18:00, Mayor que la Máxima 27.4 07-01-2001 00:00 27.6 -- 27.4 2023-12-28 23:33:00
2001-03-08 00:00:00 Temperatura 28.3 del 07-03-2001 18:00, Mayor que la Máxima 28.2 08-03-2001 00:00 28.3 -- 28.2 2023-12-28 23:33:00
2001-03-31 00:00:00 Temperatura 24.8 del 30-03-2001 18:00, Mayor que la Máxima 17.0 31-03-2001 00:00 24.8 -- 17.0 2023-12-28 23:33:00
2001-04-23 00:00:00 Temperatura 21.2 del 22-04-2001 18:00, Mayor que la Máxima 20.8 23-04-2001 00:00 21.2 -- 20.8 2023-12-28 23:33:00
2001-06-07 00:00:00 Temperatura 23.1 del 06-06-2001 18:00, Mayor que la Máxima 23.0 07-06-2001 00:00 23.1 -- 23.0 2023-12-28 23:33:00
2001-06-12 00:00:00 Temperatura 16.6 del 11-06-2001 18:00, Mayor que la Máxima 16.4 12-06-2001 00:00 16.6 -- 16.4 2023-12-28 23:33:00
2001-07-08 00:00:00 Temperatura 18.6 del 07-07-2001 18:00, Mayor que la Máxima 18.0 08-07-2001 00:00 18.6 -- 18.0 2023-12-28 23:34:00
2001-08-12 00:00:00 Temperatura 14.1 del 11-08-2001 18:00, Mayor que la Máxima 9.6 12-08-2001 00:00 14.1 -- 9.6 2023-12-28 23:34:00
2001-08-17 00:00:00 Temperatura 11.2 del 16-08-2001 18:00, Mayor que la Máxima 10.8 17-08-2001 00:00 11.2 -- 10.8 2023-12-28 23:34:00
2001-08-19 00:00:00 Temperatura 17.0 del 18-08-2001 18:00, Mayor que la Máxima 15.0 19-08-2001 00:00 17.0 -- 15.0 2023-12-28 23:34:00
2001-10-06 00:00:00 Temperatura 20.2 del 05-10-2001 18:00, Mayor que la Máxima 17.0 06-10-2001 00:00 20.2 -- 17.0 2023-12-28 23:34:00
2001-11-17 00:00:00 Temperatura 27.8 del 16-11-2001 18:00, Mayor que la Máxima 23.2 17-11-2001 00:00 27.8 -- 23.2 2023-12-28 23:34:00
2002-02-17 00:00:00 Temperatura 27.4 del 16-02-2002 18:00, Mayor que la Máxima 27.0 17-02-2002 00:00 27.4 -- 27.0 2023-12-28 23:34:00
2002-06-30 00:00:00 Temperatura 16.2 del 29-06-2002 18:00, Mayor que la Máxima 10.2 30-06-2002 00:00 16.2 -- 10.2 2023-12-28 23:34:00
2002-08-30 00:00:00 Temperatura 15.6 del 29-08-2002 18:00, Mayor que la Máxima 15.4 30-08-2002 00:00 15.6 -- 15.4 2023-12-28 23:35:00
2002-10-14 00:00:00 Temperatura 26.4 del 13-10-2002 18:00, Mayor que la Máxima 26.2 14-10-2002 00:00 26.4 -- 26.2 2023-12-28 23:35:00
2002-11-03 00:00:00 Temperatura 20.4 del 02-11-2002 18:00, Mayor que la Máxima 19.6 03-11-2002 00:00 20.4 -- 19.6 2023-12-28 23:35:00
2002-11-04 00:00:00 Temperatura 23.6 del 03-11-2002 18:00, Mayor que la Máxima 23.0 04-11-2002 00:00 23.6 -- 23.0 2023-12-28 23:35:00
2003-04-07 00:00:00 Temperatura 27.2 del 06-04-2003 18:00, Mayor que la Máxima 24.4 07-04-2003 00:00 27.2 -- 24.4 2023-12-28 23:35:00
2003-06-16 00:00:00 Temperatura 17.6 del 16-06-2003 00:00, Mayor que la Máxima 16.0 16-06-2003 00:00 17.6 -- 16.0 2023-12-28 23:35:00
2003-06-23 00:00:00 Temperatura 23.2 del 22-06-2003 18:00, Mayor que la Máxima 22.0 23-06-2003 00:00 23.2 -- 22.0 2023-12-28 23:35:00
2003-06-30 00:00:00 Temperatura 18.4 del 29-06-2003 18:00, Mayor que la Máxima 17.2 30-06-2003 00:00 18.4 -- 17.2 2023-12-28 23:35:00
2003-09-30 00:00:00 Temperatura 26.4 del 29-09-2003 18:00, Mayor que la Máxima 26.2 30-09-2003 00:00 26.4 -- 26.2 2023-12-28 23:36:00
2005-03-31 00:00:00 Temperatura 22.4 del 30-03-2005 18:00, Mayor que la Máxima 22.0 31-03-2005 00:00 22.4 -- 22.0 2023-12-28 23:36:00
2005-11-12 00:00:00 Temperatura 28.4 del 11-11-2005 18:00, Mayor que la Máxima 28.0 12-11-2005 00:00 28.4 -- 28.0 2023-12-28 23:36:00
2005-11-16 00:00:00 Temperatura 25.6 del 15-11-2005 18:00, Mayor que la Máxima 25.5 16-11-2005 00:00 25.6 -- 25.5 2023-12-28 23:36:00
2005-11-20 00:00:00 Temperatura 30.0 del 19-11-2005 18:00, Mayor que la Máxima 29.3 20-11-2005 00:00 30.0 -- 29.3 2023-12-28 23:36:00
2006-01-25 00:00:00 Temperatura 28.9 del 24-01-2006 18:00, Mayor que la Máxima 20.4 25-01-2006 00:00 28.9 -- 20.4 2023-12-28 23:37:00
2006-06-09 00:00:00 Temperatura 10.3 del 09-06-2006 00:00, Mayor que la Máxima 9.0 09-06-2006 00:00 10.3 -- 9.0 2023-12-28 23:37:00
2006-07-18 00:00:00 Temperatura 24.8 del 17-07-2006 18:00, Mayor que la Máxima 24.5 18-07-2006 00:00 24.8 -- 24.5 2023-12-28 23:37:00
2006-07-25 00:00:00 Temperatura 16.4 del 25-07-2006 00:00, Mayor que la Máxima 10.0 25-07-2006 00:00 16.4 -- 10.0 2023-12-28 23:37:00
2006-07-28 00:00:00 Temperatura 16.4 del 28-07-2006 00:00, Mayor que la Máxima 14.6 28-07-2006 00:00 16.4 -- 14.6 2023-12-28 23:37:00
2006-09-11 00:00:00 Temperatura 24.2 del 10-09-2006 18:00, Mayor que la Máxima 24.0 11-09-2006 00:00 24.2 -- 24.0 2023-12-28 23:37:00
2006-11-21 00:00:00 Temperatura 22.6 del 21-11-2006 00:00, Mayor que la Máxima 22.0 21-11-2006 00:00 22.6 -- 22.0 2023-12-28 23:37:00
2006-12-06 00:00:00 Temperatura 28.8 del 05-12-2006 18:00, Mayor que la Máxima 28.4 06-12-2006 00:00 28.8 -- 28.4 2023-12-28 23:37:00
2006-12-07 00:00:00 Temperatura 33.2 del 07-12-2006 00:00, Mayor que la Máxima 29.2 07-12-2006 00:00 33.2 -- 29.2 2023-12-28 23:37:00
2006-12-08 00:00:00 Temperatura 30.0 del 08-12-2006 00:00, Mayor que la Máxima 25.2 08-12-2006 00:00 30.0 -- 25.2 2023-12-28 23:37:00
2006-12-09 00:00:00 Temperatura 26.4 del 08-12-2006 18:00, Mayor que la Máxima 25.4 09-12-2006 00:00 26.4 -- 25.4 2023-12-28 23:37:00
2000-07-08 12:00:00 Temperatura 7.0 del 08-07-2000 12:00, Menor que la Mínima 7.2 08-07-2000 12:00 7.0 -- 7.2 2023-12-28 23:33:00
2000-07-12 12:00:00 Temperatura -2.5 del 12-07-2000 12:00, Menor que la Mínima -2.2 12-07-2000 12:00 -2.5 -- -2.2 2023-12-28 23:33:00
2001-06-02 12:00:00 Temperatura 9.0 del 02-06-2001 12:00, Menor que la Mínima 9.2 02-06-2001 12:00 9.0 -- 9.2 2023-12-28 23:33:00
2001-08-30 12:00:00 Temperatura 11.4 del 30-08-2001 12:00, Menor que la Mínima 11.5 30-08-2001 12:00 11.4 -- 11.5 2023-12-28 23:34:00
2002-06-14 12:00:00 Temperatura -1.0 del 14-06-2002 12:00, Menor que la Mínima -0.1 14-06-2002 12:00 -1.0 -- -0.1 2023-12-28 23:34:00
2002-08-25 12:00:00 Temperatura 6.8 del 25-08-2002 12:00, Menor que la Mínima 8.2 25-08-2002 12:00 6.8 -- 8.2 2023-12-28 23:35:00
2003-09-07 12:00:00 Temperatura 5.6 del 07-09-2003 12:00, Menor que la Mínima 5.8 07-09-2003 12:00 5.6 -- 5.8 2023-12-28 23:36:00
2003-09-14 12:00:00 Temperatura 6.8 del 14-09-2003 12:00, Menor que la Mínima 7.0 14-09-2003 12:00 6.8 -- 7.0 2023-12-28 23:36:00
Total de Errores Recientes 48

Detalle de Errores Encontrados

Nivel Fecha del Dato Descripción Información Error Fecha Ingreso
2 2000-05-14 00:00:00 Temperatura 13.0 del 13-05-2000 18:00, Mayor que la Máxima 5.4 14-05-2000 00:00 13.0 -- 5.4 2023-12-28 23:32:00
2 2000-07-16 00:00:00 Temperatura 22.8 del 15-07-2000 18:00, Mayor que la Máxima 22.2 16-07-2000 00:00 22.8 -- 22.2 2023-12-28 23:33:00
2 2001-01-07 00:00:00 Temperatura 27.6 del 06-01-2001 18:00, Mayor que la Máxima 27.4 07-01-2001 00:00 27.6 -- 27.4 2023-12-28 23:33:00
2 2001-03-08 00:00:00 Temperatura 28.3 del 07-03-2001 18:00, Mayor que la Máxima 28.2 08-03-2001 00:00 28.3 -- 28.2 2023-12-28 23:33:00
2 2001-03-31 00:00:00 Temperatura 24.8 del 30-03-2001 18:00, Mayor que la Máxima 17.0 31-03-2001 00:00 24.8 -- 17.0 2023-12-28 23:33:00
2 2001-04-23 00:00:00 Temperatura 21.2 del 22-04-2001 18:00, Mayor que la Máxima 20.8 23-04-2001 00:00 21.2 -- 20.8 2023-12-28 23:33:00
2 2001-06-07 00:00:00 Temperatura 23.1 del 06-06-2001 18:00, Mayor que la Máxima 23.0 07-06-2001 00:00 23.1 -- 23.0 2023-12-28 23:33:00
2 2001-06-12 00:00:00 Temperatura 16.6 del 11-06-2001 18:00, Mayor que la Máxima 16.4 12-06-2001 00:00 16.6 -- 16.4 2023-12-28 23:33:00
2 2001-07-08 00:00:00 Temperatura 18.6 del 07-07-2001 18:00, Mayor que la Máxima 18.0 08-07-2001 00:00 18.6 -- 18.0 2023-12-28 23:34:00
2 2001-08-12 00:00:00 Temperatura 14.1 del 11-08-2001 18:00, Mayor que la Máxima 9.6 12-08-2001 00:00 14.1 -- 9.6 2023-12-28 23:34:00
2 2001-08-17 00:00:00 Temperatura 11.2 del 16-08-2001 18:00, Mayor que la Máxima 10.8 17-08-2001 00:00 11.2 -- 10.8 2023-12-28 23:34:00
2 2001-08-19 00:00:00 Temperatura 17.0 del 18-08-2001 18:00, Mayor que la Máxima 15.0 19-08-2001 00:00 17.0 -- 15.0 2023-12-28 23:34:00
2 2001-10-06 00:00:00 Temperatura 20.2 del 05-10-2001 18:00, Mayor que la Máxima 17.0 06-10-2001 00:00 20.2 -- 17.0 2023-12-28 23:34:00
2 2001-11-17 00:00:00 Temperatura 27.8 del 16-11-2001 18:00, Mayor que la Máxima 23.2 17-11-2001 00:00 27.8 -- 23.2 2023-12-28 23:34:00
2 2002-02-17 00:00:00 Temperatura 27.4 del 16-02-2002 18:00, Mayor que la Máxima 27.0 17-02-2002 00:00 27.4 -- 27.0 2023-12-28 23:34:00
2 2002-06-30 00:00:00 Temperatura 16.2 del 29-06-2002 18:00, Mayor que la Máxima 10.2 30-06-2002 00:00 16.2 -- 10.2 2023-12-28 23:34:00
2 2002-08-30 00:00:00 Temperatura 15.6 del 29-08-2002 18:00, Mayor que la Máxima 15.4 30-08-2002 00:00 15.6 -- 15.4 2023-12-28 23:35:00
2 2002-10-14 00:00:00 Temperatura 26.4 del 13-10-2002 18:00, Mayor que la Máxima 26.2 14-10-2002 00:00 26.4 -- 26.2 2023-12-28 23:35:00
2 2002-11-03 00:00:00 Temperatura 20.4 del 02-11-2002 18:00, Mayor que la Máxima 19.6 03-11-2002 00:00 20.4 -- 19.6 2023-12-28 23:35:00
2 2002-11-04 00:00:00 Temperatura 23.6 del 03-11-2002 18:00, Mayor que la Máxima 23.0 04-11-2002 00:00 23.6 -- 23.0 2023-12-28 23:35:00
2 2003-04-07 00:00:00 Temperatura 27.2 del 06-04-2003 18:00, Mayor que la Máxima 24.4 07-04-2003 00:00 27.2 -- 24.4 2023-12-28 23:35:00
2 2003-06-16 00:00:00 Temperatura 17.6 del 16-06-2003 00:00, Mayor que la Máxima 16.0 16-06-2003 00:00 17.6 -- 16.0 2023-12-28 23:35:00
2 2003-06-23 00:00:00 Temperatura 23.2 del 22-06-2003 18:00, Mayor que la Máxima 22.0 23-06-2003 00:00 23.2 -- 22.0 2023-12-28 23:35:00
2 2003-06-30 00:00:00 Temperatura 18.4 del 29-06-2003 18:00, Mayor que la Máxima 17.2 30-06-2003 00:00 18.4 -- 17.2 2023-12-28 23:35:00
2 2003-09-30 00:00:00 Temperatura 26.4 del 29-09-2003 18:00, Mayor que la Máxima 26.2 30-09-2003 00:00 26.4 -- 26.2 2023-12-28 23:36:00
2 2005-03-31 00:00:00 Temperatura 22.4 del 30-03-2005 18:00, Mayor que la Máxima 22.0 31-03-2005 00:00 22.4 -- 22.0 2023-12-28 23:36:00
2 2005-11-12 00:00:00 Temperatura 28.4 del 11-11-2005 18:00, Mayor que la Máxima 28.0 12-11-2005 00:00 28.4 -- 28.0 2023-12-28 23:36:00
2 2005-11-16 00:00:00 Temperatura 25.6 del 15-11-2005 18:00, Mayor que la Máxima 25.5 16-11-2005 00:00 25.6 -- 25.5 2023-12-28 23:36:00
2 2005-11-20 00:00:00 Temperatura 30.0 del 19-11-2005 18:00, Mayor que la Máxima 29.3 20-11-2005 00:00 30.0 -- 29.3 2023-12-28 23:36:00
2 2006-01-25 00:00:00 Temperatura 28.9 del 24-01-2006 18:00, Mayor que la Máxima 20.4 25-01-2006 00:00 28.9 -- 20.4 2023-12-28 23:37:00
2 2006-06-09 00:00:00 Temperatura 10.3 del 09-06-2006 00:00, Mayor que la Máxima 9.0 09-06-2006 00:00 10.3 -- 9.0 2023-12-28 23:37:00
2 2006-07-18 00:00:00 Temperatura 24.8 del 17-07-2006 18:00, Mayor que la Máxima 24.5 18-07-2006 00:00 24.8 -- 24.5 2023-12-28 23:37:00
2 2006-07-25 00:00:00 Temperatura 16.4 del 25-07-2006 00:00, Mayor que la Máxima 10.0 25-07-2006 00:00 16.4 -- 10.0 2023-12-28 23:37:00
2 2006-07-28 00:00:00 Temperatura 16.4 del 28-07-2006 00:00, Mayor que la Máxima 14.6 28-07-2006 00:00 16.4 -- 14.6 2023-12-28 23:37:00
2 2006-09-11 00:00:00 Temperatura 24.2 del 10-09-2006 18:00, Mayor que la Máxima 24.0 11-09-2006 00:00 24.2 -- 24.0 2023-12-28 23:37:00
2 2006-11-21 00:00:00 Temperatura 22.6 del 21-11-2006 00:00, Mayor que la Máxima 22.0 21-11-2006 00:00 22.6 -- 22.0 2023-12-28 23:37:00
2 2006-12-06 00:00:00 Temperatura 28.8 del 05-12-2006 18:00, Mayor que la Máxima 28.4 06-12-2006 00:00 28.8 -- 28.4 2023-12-28 23:37:00
2 2006-12-07 00:00:00 Temperatura 33.2 del 07-12-2006 00:00, Mayor que la Máxima 29.2 07-12-2006 00:00 33.2 -- 29.2 2023-12-28 23:37:00
2 2006-12-08 00:00:00 Temperatura 30.0 del 08-12-2006 00:00, Mayor que la Máxima 25.2 08-12-2006 00:00 30.0 -- 25.2 2023-12-28 23:37:00
2 2006-12-09 00:00:00 Temperatura 26.4 del 08-12-2006 18:00, Mayor que la Máxima 25.4 09-12-2006 00:00 26.4 -- 25.4 2023-12-28 23:37:00
2 2019-06-27 00:00:00 Temperatura 17.3 del 26-06-2019 19:00, Mayor que la Máxima 14.5 27-06-2019 00:00 17.3 -- 14.5 2019-06-27 00:20:00
2 2022-06-23 00:00:00 Temperatura 14.8 del 22-06-2022 19:00, Mayor que la Máxima 10.6 23-06-2022 00:00 14.8 -- 10.6 2022-06-23 00:09:00
2 2022-07-02 00:00:00 Temperatura 8.7 del 01-07-2022 14:00, Mayor que la Máxima 8.3 02-07-2022 00:00 8.7 -- 8.3 2022-07-02 00:09:00
2 2022-11-28 00:00:00 Temperatura 28.4 del 27-11-2022 19:00, Mayor que la Máxima 20.9 28-11-2022 00:00 28.4 -- 20.9 2022-11-28 00:21:00
2 2023-01-07 00:00:00 Temperatura 29.5 del 06-01-2023 18:00, Mayor que la Máxima 21.9 07-01-2023 00:00 29.5 -- 21.9 2023-01-07 00:20:00
2 2023-02-10 00:00:00 Temperatura 32.6 del 09-02-2023 17:00, Mayor que la Máxima 24.6 10-02-2023 00:00 32.6 -- 24.6 2023-02-10 00:20:00
2 2023-02-18 00:00:00 Temperatura 29.4 del 17-02-2023 16:00, Mayor que la Máxima 20.7 18-02-2023 00:00 29.4 -- 20.7 2023-02-18 00:21:00
2 2000-07-08 12:00:00 Temperatura 7.0 del 08-07-2000 12:00, Menor que la Mínima 7.2 08-07-2000 12:00 7.0 -- 7.2 2023-12-28 23:33:00
2 2000-07-12 12:00:00 Temperatura -2.5 del 12-07-2000 12:00, Menor que la Mínima -2.2 12-07-2000 12:00 -2.5 -- -2.2 2023-12-28 23:33:00
2 2001-06-02 12:00:00 Temperatura 9.0 del 02-06-2001 12:00, Menor que la Mínima 9.2 02-06-2001 12:00 9.0 -- 9.2 2023-12-28 23:33:00
2 2001-08-30 12:00:00 Temperatura 11.4 del 30-08-2001 12:00, Menor que la Mínima 11.5 30-08-2001 12:00 11.4 -- 11.5 2023-12-28 23:34:00
2 2002-06-14 12:00:00 Temperatura -1.0 del 14-06-2002 12:00, Menor que la Mínima -0.1 14-06-2002 12:00 -1.0 -- -0.1 2023-12-28 23:34:00
2 2002-08-25 12:00:00 Temperatura 6.8 del 25-08-2002 12:00, Menor que la Mínima 8.2 25-08-2002 12:00 6.8 -- 8.2 2023-12-28 23:35:00
2 2003-09-07 12:00:00 Temperatura 5.6 del 07-09-2003 12:00, Menor que la Mínima 5.8 07-09-2003 12:00 5.6 -- 5.8 2023-12-28 23:36:00
2 2003-09-14 12:00:00 Temperatura 6.8 del 14-09-2003 12:00, Menor que la Mínima 7.0 14-09-2003 12:00 6.8 -- 7.0 2023-12-28 23:36:00
2 2022-12-20 12:00:00 Temperatura 8.8 del 20-12-2022 10:00, Menor que la Mínima 17.5 20-12-2022 12:00 8.8 -- 17.5 2022-12-20 12:08:00
2 2023-01-01 12:00:00 Temperatura 8.6 del 01-01-2023 10:00, Menor que la Mínima 13.7 01-01-2023 12:00 8.6 -- 13.7 2023-01-01 12:21:00
2 2023-01-01 12:00:00 Temperatura 8.6 del 01-01-2023 10:00, Menor que la Mínima 13.7 01-01-2023 12:00 8.6 -- 13.7 2023-01-01 12:21:00
2 2023-01-14 12:00:00 Temperatura 8.8 del 14-01-2023 10:00, Menor que la Mínima 18.6 14-01-2023 12:00 8.8 -- 18.6 2023-01-14 12:21:00
2 2023-02-01 12:00:00 Temperatura 12.1 del 01-02-2023 10:00, Menor que la Mínima 16.1 01-02-2023 12:00 12.1 -- 16.1 2023-02-01 12:21:00
Errores del Nivel 60
Informe generado el 23-02-2024 10:50
Requerimiento: RE6001